Time;durP1;ratioP1;P1;durP2;ratioP2;P2;SDS_P1;SDS_P2;PMS_P1;PMS_P2;Temp;Humidity;BMP_temperature;BMP_pressure;BME280_temperature;BME280_humidity;BME280_pressure;Samples;Min_cycle;Max_cycle;Signal;HPM_P1;HPM_P2
2023/08/13 00:01:02;;;;;;;7.60;3.30;;;;;;;21.41;58.77;99700.52;80783;1295;3025963;-65
2023/08/13 00:03:28;;;;;;;6.50;3.40;;;;;;;21.40;58.84;99702.08;82069;1295;3013130;-65
2023/08/13 00:05:55;;;;;;;5.90;3.20;;;;;;;21.40;58.92;99702.09;82105;1294;3011593;-65
2023/08/13 00:08:22;;;;;;;5.80;3.20;;;;;;;21.40;58.77;99700.49;80789;1294;3050014;-66
2023/08/13 00:10:49;;;;;;;7.10;3.00;;;;;;;21.39;58.40;99702.34;82068;1295;3013007;-67
2023/08/13 00:13:16;;;;;;;5.10;2.90;;;;;;;21.39;58.04;99700.08;82064;1294;3011204;-65
2023/08/13 00:15:43;;;;;;;6.70;3.10;;;;;;;21.38;57.90;99704.22;80779;1295;3025669;-65
2023/08/13 00:18:10;;;;;;;10.80;3.40;;;;;;;21.34;57.34;99696.95;82071;1294;3011337;-64
2023/08/13 00:20:37;;;;;;;8.70;3.70;;;;;;;21.32;57.84;99694.69;82056;1294;3011108;-63
2023/08/13 00:23:05;;;;;;;7.00;3.80;;;;;;;21.30;58.50;99691.17;80788;1295;3027265;-64
2023/08/13 00:25:31;;;;;;;11.20;3.70;;;;;;;21.25;58.76;99693.25;82075;1295;3012968;-66
2023/08/13 00:27:58;;;;;;;8.10;3.60;;;;;;;21.21;58.98;99696.83;82039;1294;3011240;-63
2023/08/13 00:30:26;;;;;;;9.50;4.00;;;;;;;21.19;59.32;99694.80;80765;1294;3026050;-67
2023/08/13 00:32:52;;;;;;;9.00;4.40;;;;;;;21.20;59.35;99695.15;82048;1294;3018410;-62
2023/08/13 00:35:19;;;;;;;10.00;5.10;;;;;;;21.18;59.41;99695.56;82041;1294;3011129;-66
2023/08/13 00:37:47;;;;;;;13.30;6.40;;;;;;;21.17;59.60;99693.77;80705;1295;3026922;-65
2023/08/13 00:40:13;;;;;;;22.50;10.70;;;;;;;21.14;59.70;99692.46;82057;1294;3012427;-65
2023/08/13 00:42:40;;;;;;;21.30;11.20;;;;;;;21.06;60.06;99690.91;81944;1297;3011012;-65
2023/08/13 00:45:08;;;;;;;17.80;7.50;;;;;;;21.01;60.08;99692.14;80791;1294;3025879;-65
2023/08/13 00:47:35;;;;;;;14.50;8.20;;;;;;;20.97;60.14;99690.88;82080;1294;3012973;-64
2023/08/13 00:50:05;;;;;;;17.30;7.30;;;;;;;20.94;60.09;99689.62;81897;1295;3011389;-62
2023/08/13 00:52:32;;;;;;;10.40;6.30;;;;;;;20.92;60.07;99686.93;80701;1295;3048645;-64
2023/08/13 00:54:59;;;;;;;10.30;6.00;;;;;;;20.90;59.69;99686.05;82067;1294;3012583;-64
2023/08/13 00:57:26;;;;;;;7.60;4.80;;;;;;;20.91;59.52;99689.56;81966;1299;3011082;-67
2023/08/13 00:59:53;;;;;;;11.90;4.60;;;;;;;20.90;59.68;99690.36;80769;1294;3026095;-66
2023/08/13 01:02:20;;;;;;;11.40;4.80;;;;;;;20.88;60.09;99690.20;81946;1295;3018113;-65
2023/08/13 01:04:46;;;;;;;11.70;4.70;;;;;;;20.84;60.54;99694.35;82022;1295;3011748;-65
2023/08/13 01:07:52;;;;;;;9.50;5.20;;;;;;;20.83;60.77;99687.16;80802;1294;3025175;-64
2023/08/13 01:10:28;;;;;;;9.90;5.50;;;;;;;20.77;61.37;99691.65;80738;1294;3052499;-66
2023/08/13 01:13:34;;;;;;;7.30;5.20;;;;;;;20.72;61.31;99694.09;80773;1298;3051229;-63
2023/08/13 01:16:02;;;;;;;11.60;6.50;;;;;;;20.66;61.77;99692.40;80716;1294;3068960;-64
2023/08/13 01:18:28;;;;;;;15.70;8.30;;;;;;;20.60;61.89;99693.09;81894;1295;3012429;-65
2023/08/13 01:20:55;;;;;;;12.80;8.70;;;;;;;20.54;62.27;99693.90;81929;1295;3011378;-68
2023/08/13 01:23:23;;;;;;;14.10;7.70;;;;;;;20.50;62.51;99691.67;80821;1294;3026319;-64
2023/08/13 01:25:56;;;;;;;13.30;6.70;;;;;;;20.47;62.73;99693.36;82044;1295;3012986;-65
2023/08/13 01:28:34;;;;;;;13.10;6.20;;;;;;;20.42;62.66;99695.29;80743;1298;3052927;-64
2023/08/13 01:31:16;;;;;;;11.20;6.10;;;;;;;20.32;63.37;99694.82;80732;1295;3067501;-63
2023/08/13 01:33:43;;;;;;;9.60;6.30;;;;;;;20.29;63.34;99694.41;80734;1295;3050195;-67
2023/08/13 01:36:10;;;;;;;15.30;5.60;;;;;;;20.22;63.82;99700.55;81932;1295;3012254;-65
2023/08/13 01:38:37;;;;;;;9.80;7.20;;;;;;;20.20;63.79;99696.89;82050;1295;3011232;-68
2023/08/13 01:41:04;;;;;;;11.40;5.80;;;;;;;20.18;64.18;99704.20;80703;1295;3025623;-64
2023/08/13 01:43:31;;;;;;;12.60;6.40;;;;;;;20.15;64.26;99700.77;82069;1294;3018450;-67
2023/08/13 01:45:59;;;;;;;9.40;5.50;;;;;;;20.09;63.73;99707.34;81983;1298;3011246;-64
2023/08/13 01:48:28;;;;;;;8.20;5.80;;;;;;;20.07;63.95;99710.41;80801;1294;3051984;-62
2023/08/13 01:50:54;;;;;;;9.30;5.90;;;;;;;20.12;64.11;99714.56;82072;1295;3018746;-68
2023/08/13 01:53:21;;;;;;;10.90;6.00;;;;;;;20.11;64.37;99714.23;82028;1298;3011442;-67
2023/08/13 01:55:49;;;;;;;7.20;5.00;;;;;;;20.05;64.66;99717.23;80723;1295;3050672;-64
2023/08/13 01:58:16;;;;;;;10.90;5.30;;;;;;;20.02;65.08;99713.53;82015;1298;3012706;-62
2023/08/13 02:00:42;;;;;;;9.50;5.70;;;;;;;20.05;65.26;99720.22;82000;1296;3011455;-66
2023/08/13 02:03:10;;;;;;;9.30;5.80;;;;;;;19.97;65.69;99717.05;80802;1294;3026591;-62
2023/08/13 02:05:37;;;;;;;9.30;6.30;;;;;;;20.00;65.59;99722.13;82095;1294;3018911;-67
2023/08/13 02:08:04;;;;;;;9.70;6.40;;;;;;;19.95;65.94;99722.54;82035;1295;3011390;-65
2023/08/13 02:10:31;;;;;;;13.00;6.80;;;;;;;19.89;65.75;99724.02;80722;1295;3025939;-63
2023/08/13 02:12:59;;;;;;;10.30;6.20;;;;;;;19.84;66.21;99727.83;82078;1294;3012680;-67
2023/08/13 02:15:25;;;;;;;13.30;5.80;;;;;;;19.77;66.20;99727.98;81959;1298;3011443;-64
2023/08/13 02:17:53;;;;;;;7.80;5.40;;;;;;;19.78;66.09;99731.98;80797;1294;3050942;-66
2023/08/13 02:20:20;;;;;;;10.90;6.40;;;;;;;19.84;65.74;99735.19;82035;1295;3018268;-65
2023/08/13 02:22:46;;;;;;;7.60;5.60;;;;;;;19.87;65.75;99737.00;82031;1294;3011078;-65
2023/08/13 02:25:14;;;;;;;9.00;6.10;;;;;;;19.82;65.83;99737.30;80777;1294;3027201;-67
2023/08/13 02:27:41;;;;;;;8.40;5.60;;;;;;;19.77;66.24;99742.56;82063;1294;3012975;-66
2023/08/13 02:30:09;;;;;;;10.40;5.00;;;;;;;19.70;66.01;99739.64;82016;1294;3011318;-63
2023/08/13 02:32:37;;;;;;;10.10;6.40;;;;;;;19.75;65.98;99741.50;80805;1294;3051158;-62
2023/08/13 02:35:03;;;;;;;10.60;5.90;;;;;;;19.75;66.09;99739.68;82054;1294;3012552;-70
2023/08/13 02:37:30;;;;;;;13.10;7.00;;;;;;;19.78;65.73;99746.42;82033;1294;3011235;-66
2023/08/13 02:39:59;;;;;;;8.90;5.50;;;;;;;19.83;65.62;99748.59;80805;1294;3026067;-67
2023/08/13 02:42:25;;;;;;;10.80;6.30;;;;;;;19.81;65.56;99749.50;82055;1295;3012362;-67
2023/08/13 02:44:52;;;;;;;8.90;6.10;;;;;;;19.74;66.04;99754.39;82055;1295;3011290;-64
2023/08/13 02:47:20;;;;;;;8.70;5.70;;;;;;;19.70;66.28;99753.34;80791;1294;3025329;-62
2023/08/13 02:49:46;;;;;;;11.80;5.70;;;;;;;19.77;66.04;99758.20;82071;1295;3012822;-64
2023/08/13 02:52:13;;;;;;;9.00;6.00;;;;;;;19.71;66.38;99759.14;82056;1295;3011172;-65
2023/08/13 02:54:41;;;;;;;9.40;5.40;;;;;;;19.74;66.27;99761.45;80776;1294;3024993;-64
2023/08/13 02:57:07;;;;;;;11.00;5.70;;;;;;;19.76;65.78;99760.92;82065;1294;3018146;-68
2023/08/13 02:59:34;;;;;;;7.70;5.70;;;;;;;19.80;65.89;99762.75;82017;1298;3011223;-66
2023/08/13 03:02:01;;;;;;;14.10;5.40;;;;;;;19.78;66.06;99763.89;80732;1295;3026478;-64
2023/08/13 03:04:28;;;;;;;10.10;5.70;;;;;;;19.83;65.63;99763.48;82008;1295;3013006;-65
2023/08/13 03:06:55;;;;;;;12.60;6.40;;;;;;;19.84;65.62;99764.66;82059;1295;3011325;-66
2023/08/13 03:09:22;;;;;;;10.00;5.70;;;;;;;19.86;65.50;99762.04;80803;1294;3026000;-64
2023/08/13 03:11:49;;;;;;;13.80;6.00;;;;;;;19.88;65.42;99762.81;82072;1295;3012464;-65
2023/08/13 03:14:16;;;;;;;9.20;5.90;;;;;;;19.88;65.08;99768.57;81956;1295;3011230;-64
2023/08/13 03:16:44;;;;;;;9.60;5.70;;;;;;;19.91;65.25;99770.04;80725;1295;3050520;-64
2023/08/13 03:19:11;;;;;;;10.20;5.80;;;;;;;19.94;65.19;99769.02;82014;1295;3012430;-65
2023/08/13 03:21:37;;;;;;;12.70;6.60;;;;;;;19.89;65.47;99768.29;82040;1294;3011586;-68
2023/08/13 03:24:06;;;;;;;11.80;5.90;;;;;;;19.89;65.32;99770.02;80793;1294;3025228;-67
2023/08/13 03:26:32;;;;;;;9.20;6.20;;;;;;;19.94;65.24;99776.19;82089;1298;3018172;-65
2023/08/13 03:28:58;;;;;;;11.20;5.70;;;;;;;19.93;65.67;99779.27;82037;1298;3011330;-64
2023/08/13 03:31:26;;;;;;;10.50;6.70;;;;;;;19.94;65.82;99784.69;80738;1295;3026113;-63
2023/08/13 03:34:04;;;;;;;9.00;6.60;;;;;;;19.89;66.37;99788.41;80727;1295;3055065;-65
2023/08/13 03:36:31;;;;;;;11.40;6.10;;;;;;;19.87;66.61;99785.19;82016;1295;3018011;-66
2023/08/13 03:38:57;;;;;;;9.50;7.00;;;;;;;19.86;66.53;99785.51;81953;1297;3011329;-67
2023/08/13 03:41:25;;;;;;;11.40;6.90;;;;;;;19.81;66.59;99784.98;80800;1294;3025640;-66
2023/08/13 03:43:52;;;;;;;9.70;6.10;;;;;;;19.81;66.47;99785.36;82085;1294;3013239;-63
2023/08/13 03:46:18;;;;;;;12.00;6.30;;;;;;;19.89;66.15;99785.30;82078;1294;3011219;-65
2023/08/13 03:48:46;;;;;;;9.90;6.20;;;;;;;19.91;66.17;99785.70;80738;1295;3025645;-64
2023/08/13 03:51:12;;;;;;;14.20;6.70;;;;;;;19.93;66.33;99788.48;82061;1294;3012714;-66
2023/08/13 03:53:39;;;;;;;14.10;7.10;;;;;;;20.00;66.39;99785.59;81984;1295;3011398;-63
2023/08/13 03:56:07;;;;;;;9.40;5.50;;;;;;;20.03;66.37;99790.10;80788;1295;3025319;-64
2023/08/13 03:58:38;;;;;;;14.10;6.70;;;;;;;20.12;66.16;99793.29;82063;1295;3012899;-64
2023/08/13 04:01:06;;;;;;;11.50;6.60;;;;;;;20.12;66.17;99798.46;80698;1295;3050811;-65
2023/08/13 04:03:34;;;;;;;10.60;6.20;;;;;;;20.17;66.40;99796.58;82019;1295;3012481;-65
2023/08/13 04:06:01;;;;;;;9.80;6.60;;;;;;;20.21;66.31;99806.30;82030;1295;3011256;-65
2023/08/13 04:08:29;;;;;;;10.00;6.70;;;;;;;20.24;66.13;99802.84;80731;1295;3049846;-67
2023/08/13 04:10:55;;;;;;;9.00;6.10;;;;;;;20.23;65.98;99805.09;82011;1298;3018547;-64
2023/08/13 04:13:22;;;;;;;12.70;6.60;;;;;;;20.21;66.35;99800.98;82023;1297;3011406;-68
2023/08/13 04:15:50;;;;;;;11.00;7.40;;;;;;;20.17;66.24;99804.02;80726;1295;3026168;-63
2023/08/13 04:18:16;;;;;;;15.20;7.10;;;;;;;20.22;66.18;99806.58;81991;1295;3012937;-64
2023/08/13 04:20:43;;;;;;;14.50;7.20;;;;;;;20.29;65.47;99803.80;82022;1295;3011309;-67
2023/08/13 04:23:10;;;;;;;15.30;7.30;;;;;;;20.24;65.79;99805.45;80712;1295;3025890;-64
2023/08/13 04:25:39;;;;;;;12.30;6.50;;;;;;;20.26;65.58;99801.94;82016;1298;3011408;-67
2023/08/13 04:28:06;;;;;;;7.50;6.20;;;;;;;20.29;65.26;99802.73;82037;1295;3011209;-64
2023/08/13 04:30:35;;;;;;;12.50;6.80;;;;;;;20.31;65.36;99801.80;80720;1295;3050466;-66
2023/08/13 04:33:02;;;;;;;9.90;7.40;;;;;;;20.29;65.29;99807.73;82050;1295;3012687;-64
2023/08/13 04:35:29;;;;;;;11.70;6.90;;;;;;;20.28;65.16;99804.62;81982;1295;3010958;-65
2023/08/13 04:37:57;;;;;;;12.70;6.40;;;;;;;20.37;65.13;99807.80;80701;1296;3050468;-65
2023/08/13 04:40:24;;;;;;;9.70;7.00;;;;;;;20.45;65.49;99807.20;82009;1298;3018300;-63
2023/08/13 04:42:51;;;;;;;11.00;6.50;;;;;;;20.43;65.41;99808.65;81976;1300;3011151;-65
2023/08/13 04:45:19;;;;;;;9.00;6.40;;;;;;;20.41;65.11;99807.48;80730;1295;3026538;-65
2023/08/13 04:47:46;;;;;;;11.30;6.40;;;;;;;20.46;65.02;99809.58;82056;1295;3012581;-66
2023/08/13 04:50:13;;;;;;;10.60;6.10;;;;;;;20.46;65.42;99807.34;81972;1295;3011216;-66
2023/08/13 04:52:41;;;;;;;9.80;5.70;;;;;;;20.49;65.33;99805.91;80769;1295;3026022;-66
2023/08/13 04:55:08;;;;;;;9.80;5.70;;;;;;;20.56;65.49;99803.36;82020;1298;3017852;-62
2023/08/13 04:57:34;;;;;;;10.40;6.00;;;;;;;20.55;65.06;99810.65;82041;1294;3012069;-63
2023/08/13 05:00:03;;;;;;;8.10;5.50;;;;;;;20.56;65.47;99811.30;80703;1298;3026802;-67
2023/08/13 05:02:35;;;;;;;7.60;6.20;;;;;;;20.59;65.67;99804.85;81972;1295;3011377;-65
2023/08/13 05:05:04;;;;;;;9.60;6.00;;;;;;;20.60;66.20;99811.60;80755;1295;3049221;-66
2023/08/13 05:07:31;;;;;;;7.90;5.90;;;;;;;20.65;66.46;99812.79;82011;1295;3012435;-64
2023/08/13 05:09:57;;;;;;;10.50;6.20;;;;;;;20.65;66.79;99811.20;82040;1295;3011273;-63
2023/08/13 05:12:25;;;;;;;8.80;6.20;;;;;;;20.64;67.37;99818.75;80753;1296;3052827;-64
2023/08/13 05:14:51;;;;;;;13.70;5.40;;;;;;;20.68;67.83;99816.74;82015;1295;3012828;-64
2023/08/13 05:17:18;;;;;;;10.90;6.00;;;;;;;20.62;67.54;99816.80;81938;1295;3011096;-64
2023/08/13 05:19:46;;;;;;;9.50;5.70;;;;;;;20.62;67.44;99818.02;80796;1295;3025768;-66
2023/08/13 05:22:13;;;;;;;6.90;5.60;;;;;;;20.65;67.88;99819.91;82059;1295;3013218;-63
2023/08/13 05:24:40;;;;;;;10.10;5.70;;;;;;;20.76;67.31;99821.09;82046;1295;3011584;-64
2023/08/13 05:27:08;;;;;;;12.40;5.30;;;;;;;20.84;67.73;99825.04;80796;1299;3025382;-68
2023/08/13 05:29:35;;;;;;;8.00;5.50;;;;;;;20.91;67.07;99828.77;82003;1296;3012721;-66
2023/08/13 05:32:04;;;;;;;12.10;5.40;;;;;;;20.90;66.99;99830.98;82018;1295;3011204;-64
2023/08/13 05:34:32;;;;;;;9.20;6.00;;;;;;;20.97;66.61;99834.55;80680;1295;3048280;-64
2023/08/13 05:36:59;;;;;;;13.50;6.30;;;;;;;21.11;67.34;99830.70;81984;1295;3012633;-68
2023/08/13 05:39:27;;;;;;;8.70;5.90;;;;;;;21.16;67.27;99828.98;81957;1295;3011352;-64
2023/08/13 05:41:54;;;;;;;12.90;6.50;;;;;;;21.24;67.46;99833.17;80804;1294;3053158;-68
2023/08/13 05:44:21;;;;;;;10.70;7.30;;;;;;;21.26;67.90;99832.98;82002;1295;3018069;-68
2023/08/13 05:46:48;;;;;;;10.00;6.90;;;;;;;21.31;67.95;99834.80;82019;1294;3011331;-66
2023/08/13 05:49:16;;;;;;;9.00;6.50;;;;;;;21.37;67.76;99835.43;80783;1294;3025696;-64
2023/08/13 05:51:43;;;;;;;10.50;6.60;;;;;;;21.54;67.98;99833.11;82055;1295;3018089;-63
2023/08/13 05:54:10;;;;;;;14.80;7.00;;;;;;;21.68;67.79;99826.86;82048;1295;3011135;-65
2023/08/13 05:56:38;;;;;;;11.30;6.80;;;;;;;21.72;68.15;99826.66;80779;1299;3052269;-63
2023/08/13 05:59:05;;;;;;;12.40;7.20;;;;;;;21.79;67.62;99825.05;82051;1295;3019263;-67
2023/08/13 06:01:31;;;;;;;13.50;7.00;;;;;;;21.83;68.25;99824.47;82048;1294;3011136;-67
2023/08/13 06:03:59;;;;;;;19.30;9.20;;;;;;;21.89;67.73;99825.98;80779;1295;3025958;-66
2023/08/13 06:06:27;;;;;;;14.80;8.10;;;;;;;21.98;66.94;99827.41;82030;1294;3012672;-62
2023/08/13 06:08:54;;;;;;;18.10;9.80;;;;;;;22.05;67.56;99832.34;82035;1295;3011362;-66
2023/08/13 06:11:21;;;;;;;18.20;10.60;;;;;;;22.06;66.71;99833.83;80789;1299;3025940;-63
2023/08/13 06:13:49;;;;;;;11.90;8.90;;;;;;;22.17;66.99;99829.17;82023;1295;3012787;-66
2023/08/13 06:16:16;;;;;;;19.30;10.00;;;;;;;22.32;66.99;99831.52;82035;1294;3010808;-65
2023/08/13 06:18:44;;;;;;;21.60;10.20;;;;;;;22.35;66.03;99837.64;80782;1295;3048598;-65
2023/08/13 06:21:10;;;;;;;21.40;10.10;;;;;;;22.47;66.56;99833.95;82054;1295;3018596;-65
2023/08/13 06:23:36;;;;;;;20.60;10.00;;;;;;;22.58;66.57;99826.89;82045;1295;3011044;-63
2023/08/13 06:26:06;;;;;;;16.90;10.70;;;;;;;22.60;66.64;99831.32;80759;1295;3026570;-66
2023/08/13 06:28:33;;;;;;;19.80;10.60;;;;;;;22.67;67.39;99828.64;80054;1294;3039922;-65
2023/08/13 06:31:00;;;;;;;22.70;11.00;;;;;;;22.78;67.04;99835.09;82036;1294;3011444;-67
2023/08/13 06:33:28;;;;;;;18.20;10.50;;;;;;;22.81;66.24;99835.02;80751;1295;3049352;-66
2023/08/13 06:35:55;;;;;;;21.80;10.60;;;;;;;22.90;65.57;99835.62;82056;1295;3018632;-67
2023/08/13 06:38:23;;;;;;;22.80;11.80;;;;;;;22.88;62.87;99836.39;82009;1295;3011503;-64
2023/08/13 06:40:51;;;;;;;18.00;11.50;;;;;;;23.02;64.52;99831.30;80770;1299;3050921;-66
2023/08/13 06:43:18;;;;;;;26.50;10.40;;;;;;;23.08;64.24;99836.19;82067;1295;3012510;-65
2023/08/13 06:45:45;;;;;;;16.20;9.30;;;;;;;23.15;61.86;99842.08;82007;1295;3011202;-65
2023/08/13 06:48:13;;;;;;;22.10;10.10;;;;;;;23.19;61.43;99835.97;80764;1295;3048606;-65
2023/08/13 06:50:40;;;;;;;18.80;10.20;;;;;;;23.14;60.80;99843.31;82075;1294;3012705;-63
2023/08/13 06:53:06;;;;;;;19.30;10.50;;;;;;;23.19;61.10;99834.42;82004;1295;3011335;-64
2023/08/13 06:55:34;;;;;;;14.00;8.70;;;;;;;23.29;61.10;99834.93;80792;1295;3026248;-65
2023/08/13 06:58:00;;;;;;;17.70;8.90;;;;;;;23.45;61.01;99840.09;82062;1295;3012301;-65
2023/08/13 07:00:27;;;;;;;18.00;9.50;;;;;;;23.45;59.78;99842.85;82009;1294;3011138;-64
2023/08/13 07:02:55;;;;;;;17.40;8.50;;;;;;;23.45;59.69;99845.19;80772;1295;3026455;-64
2023/08/13 07:05:21;;;;;;;13.40;8.30;;;;;;;23.40;59.27;99842.31;82018;1298;3013217;-64
2023/08/13 07:07:49;;;;;;;16.50;9.50;;;;;;;23.55;59.23;99837.80;82040;1295;3011211;-65
2023/08/13 07:10:17;;;;;;;18.30;10.10;;;;;;;23.65;59.31;99837.04;80792;1294;3052040;-64
2023/08/13 07:12:43;;;;;;;17.10;9.60;;;;;;;23.73;59.94;99838.57;82033;1295;3018860;-68
2023/08/13 07:15:10;;;;;;;19.10;10.60;;;;;;;23.75;58.10;99842.96;82020;1294;3011123;-63
2023/08/13 07:17:38;;;;;;;26.70;11.20;;;;;;;23.77;58.27;99844.46;80790;1295;3027444;-63
2023/08/13 07:20:08;;;;;;;18.80;10.10;;;;;;;23.86;58.17;99845.13;82052;1294;3012367;-64
2023/08/13 07:22:37;;;;;;;20.50;10.20;;;;;;;23.92;57.87;99844.63;80796;1295;3051350;-66
2023/08/13 07:25:05;;;;;;;16.40;9.40;;;;;;;23.88;57.17;99844.57;82090;1294;3012731;-67
2023/08/13 07:27:32;;;;;;;17.90;8.90;;;;;;;24.14;57.79;99845.45;82069;1295;3011385;-65
2023/08/13 07:30:00;;;;;;;16.30;8.30;;;;;;;24.25;57.25;99845.89;80788;1295;3056792;-64
2023/08/13 07:32:28;;;;;;;14.60;6.70;;;;;;;24.38;56.11;99847.65;82041;1294;3012874;-66
2023/08/13 07:34:55;;;;;;;10.80;6.90;;;;;;;24.54;54.20;99846.21;82058;1294;3011211;-65
2023/08/13 07:37:22;;;;;;;14.00;7.00;;;;;;;24.59;53.44;99843.67;80799;1298;3051351;-66
2023/08/13 07:39:49;;;;;;;19.00;8.30;;;;;;;24.66;54.98;99846.70;82047;1295;3018143;-65
2023/08/13 07:42:16;;;;;;;15.10;7.10;;;;;;;24.76;55.25;99840.50;82034;1295;3011736;-65
2023/08/13 07:44:44;;;;;;;12.30;7.10;;;;;;;24.76;53.68;99841.58;80809;1295;3024854;-66
2023/08/13 07:47:10;;;;;;;10.50;6.20;;;;;;;24.78;53.55;99841.52;82033;1295;3012627;-68
2023/08/13 07:52:30;;;;;;;10.70;5.70;;;;;;;25.09;52.37;99843.98;79977;1299;3013334;-67
2023/08/13 07:54:57;;;;;;;10.30;5.00;;;;;;;25.15;51.07;99842.46;79175;1302;3016082;-66
2023/08/13 07:57:24;;;;;;;7.30;4.80;;;;;;;25.18;50.60;99842.64;79318;1302;3011578;-66
2023/08/13 07:59:51;;;;;;;10.90;5.40;;;;;;;25.20;50.25;99842.23;78030;1304;3052057;-67
2023/08/13 08:02:18;;;;;;;7.70;4.40;;;;;;;25.21;51.02;99842.50;79131;1304;3013795;-68
2023/08/13 08:04:47;;;;;;;6.00;4.80;;;;;;;25.29;51.15;99847.47;77315;1301;3013028;-65
2023/08/13 08:07:15;;;;;;;10.00;4.90;;;;;;;25.31;49.65;99839.13;78152;1300;3027721;-65
2023/08/13 08:09:41;;;;;;;11.90;5.60;;;;;;;25.26;50.65;99838.45;79458;1298;3013262;-64
2023/08/13 08:12:08;;;;;;;8.20;5.00;;;;;;;25.17;51.47;99835.56;79315;1299;3011911;-64
2023/08/13 08:14:36;;;;;;;8.60;4.80;;;;;;;25.33;49.90;99830.71;78286;1295;3025911;-66
2023/08/13 08:17:05;;;;;;;7.20;3.90;;;;;;;25.44;47.89;99837.88;79432;1301;3013264;-65
2023/08/13 08:19:34;;;;;;;7.20;4.10;;;;;;;25.55;48.12;99832.02;78893;1298;3011893;-67
2023/08/13 08:22:00;;;;;;;9.40;3.80;;;;;;;25.59;46.25;99832.33;79394;1299;3013142;-67
2023/08/13 08:24:27;;;;;;;6.10;3.70;;;;;;;25.59;45.60;99828.94;79468;1298;3011708;-66
2023/08/13 08:26:55;;;;;;;4.20;3.10;;;;;;;25.49;45.18;99829.73;78091;1301;3026600;-66
2023/08/13 08:29:22;;;;;;;6.00;3.90;;;;;;;25.37;44.45;99825.01;79453;1300;3013729;-64
2023/08/13 08:31:48;;;;;;;5.70;4.00;;;;;;;25.43;45.86;99825.27;79459;1300;3014051;-66
2023/08/13 08:34:16;;;;;;;4.50;3.60;;;;;;;25.57;46.17;99829.11;78295;1301;3025762;-67
2023/08/13 08:36:42;;;;;;;8.30;4.30;;;;;;;25.74;45.18;99821.40;79452;1295;3018761;-67
2023/08/13 08:39:09;;;;;;;9.60;3.80;;;;;;;25.88;45.33;99818.84;79395;1295;3013487;-69
2023/08/13 08:41:37;;;;;;;8.30;3.90;;;;;;;25.97;45.25;99820.29;78267;1298;3026596;-66
2023/08/13 08:44:05;;;;;;;11.30;4.40;;;;;;;26.02;46.09;99820.20;79348;1298;3013150;-62
2023/08/13 08:46:32;;;;;;;5.90;3.10;;;;;;;26.09;44.07;99833.21;79448;1298;3012074;-67
2023/08/13 08:48:59;;;;;;;7.80;4.10;;;;;;;26.10;43.21;99826.30;78157;1298;3051293;-67
2023/08/13 08:51:26;;;;;;;6.70;3.90;;;;;;;26.03;43.41;99827.41;79360;1296;3013375;-67
2023/08/13 08:53:53;;;;;;;6.20;3.50;;;;;;;25.95;43.42;99822.98;79542;1299;3011753;-66
2023/08/13 08:56:21;;;;;;;6.00;3.80;;;;;;;25.80;43.60;99820.87;78088;1295;3026705;-64
2023/08/13 08:58:49;;;;;;;6.20;3.90;;;;;;;25.98;43.45;99822.94;79388;1300;3014084;-66
2023/08/13 09:01:18;;;;;;;7.80;4.40;;;;;;;26.07;43.87;99824.23;78832;1295;3011632;-65
2023/08/13 09:03:45;;;;;;;6.80;3.90;;;;;;;26.19;43.67;99825.45;79279;1300;3012694;-65
2023/08/13 09:06:11;;;;;;;4.90;3.70;;;;;;;26.27;43.92;99817.73;79341;1300;3011549;-64
2023/08/13 09:08:40;;;;;;;8.40;3.60;;;;;;;26.44;43.92;99823.51;78153;1299;3025952;-64
2023/08/13 09:11:07;;;;;;;5.50;3.70;;;;;;;26.49;43.63;99822.48;79267;1295;3013082;-68
2023/08/13 09:13:34;;;;;;;5.80;3.80;;;;;;;26.53;43.98;99824.82;79230;1295;3013483;-64
2023/08/13 09:16:01;;;;;;;7.50;3.10;;;;;;;26.69;42.76;99820.45;78136;1301;3053012;-66
2023/08/13 09:18:37;;;;;;;5.40;3.70;;;;;;;26.57;41.80;99829.23;79293;1300;3012961;-67
2023/08/13 09:21:05;;;;;;;4.90;3.50;;;;;;;26.59;42.17;99827.92;78079;1300;3057282;-65
2023/08/13 09:23:32;;;;;;;5.80;3.40;;;;;;;26.71;42.24;99825.88;79268;1295;3020765;-65
2023/08/13 09:25:58;;;;;;;4.70;3.30;;;;;;;26.80;41.66;99827.08;79283;1295;3012014;-65
2023/08/13 09:28:26;;;;;;;7.70;3.50;;;;;;;26.84;41.59;99832.45;78046;1301;3027144;-62
2023/08/13 09:30:53;;;;;;;4.90;3.40;;;;;;;26.91;41.05;99825.20;79266;1300;3021192;-63
2023/08/13 09:33:19;;;;;;;4.80;3.60;;;;;;;26.98;40.46;99814.73;79389;1300;3011569;-68
2023/08/13 09:35:47;;;;;;;5.20;3.80;;;;;;;27.16;41.52;99815.86;78071;1301;3028851;-65
2023/08/13 09:38:14;;;;;;;7.00;3.50;;;;;;;27.25;41.47;99816.77;79348;1294;3018418;-64
2023/08/13 09:40:41;;;;;;;4.60;3.50;;;;;;;27.01;40.13;99819.70;79264;1296;3013208;-65
2023/08/13 09:43:09;;;;;;;4.10;3.00;;;;;;;27.09;39.80;99813.98;78147;1300;3027993;-66
2023/08/13 09:45:35;;;;;;;5.90;3.90;;;;;;;27.15;39.70;99818.71;79236;1299;3013307;-64
2023/08/13 09:48:06;;;;;;;6.40;3.90;;;;;;;27.15;40.91;99809.90;79253;1299;3011546;-64
2023/08/13 09:50:40;;;;;;;10.60;3.70;;;;;;;27.46;40.93;99807.05;78114;1300;3055965;-65
2023/08/13 09:53:11;;;;;;;11.30;4.30;;;;;;;27.72;40.89;99801.07;79355;1300;3013175;-64
2023/08/13 09:55:40;;;;;;;6.50;4.20;;;;;;;27.90;40.72;99804.29;78134;1296;3053367;-63
2023/08/13 09:58:08;;;;;;;6.20;3.60;;;;;;;28.04;40.00;99805.86;79313;1299;3013044;-70
2023/08/13 10:00:34;;;;;;;6.60;4.00;;;;;;;28.13;40.13;99803.75;79461;1295;3012985;-66
2023/08/13 10:03:02;;;;;;;4.80;3.80;;;;;;;28.36;40.21;99808.70;78072;1294;3068599;-63
2023/08/13 10:05:29;;;;;;;8.50;3.80;;;;;;;28.49;39.52;99804.11;79199;1301;3013330;-65
2023/08/13 10:07:57;;;;;;;6.00;3.60;;;;;;;28.62;39.38;99803.50;79328;1301;3011991;-66
2023/08/13 10:10:25;;;;;;;8.20;4.70;;;;;;;28.82;39.05;99801.34;78225;1295;3054109;-63
2023/08/13 10:12:51;;;;;;;6.50;4.30;;;;;;;28.82;38.74;99807.52;79250;1301;3013358;-66
2023/08/13 10:15:21;;;;;;;5.10;4.20;;;;;;;28.56;38.66;99811.21;79538;1300;3012118;-64
2023/08/13 10:17:49;;;;;;;8.20;4.90;;;;;;;28.47;38.89;99810.85;78033;1301;3067238;-65
2023/08/13 10:20:16;;;;;;;7.50;4.90;;;;;;;28.26;38.77;99815.58;79292;1294;3013043;-66
2023/08/13 10:22:44;;;;;;;9.20;5.30;;;;;;;27.69;39.37;99815.50;79282;1294;3011501;-68
2023/08/13 10:25:29;;;;;;;11.50;5.80;;;;;;;27.43;40.01;99807.27;78294;1296;3053591;-65
2023/08/13 10:27:57;;;;;;;12.60;6.40;;;;;;;27.46;40.24;99804.16;78005;1301;3050443;-64
2023/08/13 10:30:23;;;;;;;12.80;6.40;;;;;;;27.46;40.59;99804.77;79386;1299;3012736;-63
2023/08/13 10:32:53;;;;;;;9.80;5.60;;;;;;;27.40;41.20;99805.73;79299;1301;3013128;-64
2023/08/13 10:35:25;;;;;;;10.70;6.50;;;;;;;27.33;41.87;99804.32;78139;1295;3050183;-66
2023/08/13 10:37:54;;;;;;;10.10;5.40;;;;;;;27.34;41.76;99805.77;79348;1295;3011988;-64
2023/08/13 10:40:22;;;;;;;9.40;5.40;;;;;;;27.18;41.83;99801.73;78072;1300;3049625;-66
2023/08/13 10:42:50;;;;;;;11.20;5.90;;;;;;;27.02;42.12;99801.08;79330;1295;3013422;-62
2023/08/13 10:45:18;;;;;;;9.30;6.40;;;;;;;27.07;42.36;99802.71;79370;1296;3013006;-64
2023/08/13 10:48:03;;;;;;;10.30;6.30;;;;;;;27.23;41.80;99799.45;78013;1301;3052837;-64
2023/08/13 10:50:39;;;;;;;8.40;5.40;;;;;;;27.57;41.47;99797.39;78110;1305;3068710;-65
2023/08/13 10:53:11;;;;;;;8.20;5.10;;;;;;;27.81;40.85;99801.17;78186;1300;3049992;-64
2023/08/13 10:55:47;;;;;;;8.40;4.80;;;;;;;27.79;39.31;99799.08;79273;1300;3011580;-62
2023/08/13 10:58:26;;;;;;;7.70;4.80;;;;;;;27.72;39.45;99801.10;78037;1299;3048712;-62
2023/08/13 11:01:09;;;;;;;6.20;4.80;;;;;;;27.85;39.47;99793.66;78124;1295;3053681;-64
2023/08/13 11:03:44;;;;;;;6.80;4.80;;;;;;;27.93;39.32;99806.48;78297;1294;3049867;-63
2023/08/13 11:06:14;;;;;;;7.40;5.10;;;;;;;28.09;38.83;99802.30;78814;1295;3011749;-64
2023/08/13 11:08:42;;;;;;;7.40;4.90;;;;;;;28.39;38.51;99800.63;79391;1300;3013460;-65
2023/08/13 11:11:11;;;;;;;7.00;5.30;;;;;;;28.36;38.04;99800.81;78703;1298;3011569;-65
2023/08/13 11:13:38;;;;;;;9.30;5.00;;;;;;;28.12;39.04;99794.65;79283;1295;3018697;-67
2023/08/13 11:16:05;;;;;;;7.20;5.10;;;;;;;28.06;38.73;99801.05;79445;1300;3012952;-67
2023/08/13 11:18:33;;;;;;;15.30;5.90;;;;;;;27.77;39.24;99799.60;78207;1300;3028545;-65